Map

Track Data

SID SEASON NUMBER BASIN SUBBASIN NAME ISO_TIME NATURE LAT LON WMO_WIND WMO_PRES WMO_AGENCY TRACK_TYPE DIST2LAND LANDFALL IFLAG USA_AGENCY USA_ATCF_ID USA_LAT USA_LON USA_RECORD USA_STATUS USA_WIND USA_PRES USA_SSHS USA_R34_NE USA_R34_SE USA_R34_SW USA_R34_NW USA_R50_NE USA_R50_SE USA_R50_SW USA_R50_NW USA_R64_NE USA_R64_SE USA_R64_SW USA_R64_NW USA_POCI USA_ROCI USA_RMW USA_EYE TOKYO_LAT TOKYO_LON TOKYO_GRADE TOKYO_WIND TOKYO_PRES TOKYO_R50_DIR TOKYO_R50_LONG TOKYO_R50_SHORT TOKYO_R30_DIR TOKYO_R30_LONG TOKYO_R30_SHORT TOKYO_LAND CMA_LAT CMA_LON CMA_CAT CMA_WIND CMA_PRES HKO_LAT HKO_LON HKO_CAT HKO_WIND HKO_PRES NEWDELHI_LAT NEWDELHI_LON NEWDELHI_GRADE NEWDELHI_WIND NEWDELHI_PRES NEWDELHI_CI NEWDELHI_DP NEWDELHI_POCI REUNION_LAT REUNION_LON REUNION_TYPE REUNION_WIND REUNION_PRES REUNION_TNUM REUNION_CI REUNION_RMW REUNION_R34_NE REUNION_R34_SE REUNION_R34_SW REUNION_R34_NW REUNION_R50_NE REUNION_R50_SE REUNION_R50_SW REUNION_R50_NW REUNION_R64_NE REUNION_R64_SE REUNION_R64_SW REUNION_R64_NW BOM_LAT BOM_LON BOM_TYPE BOM_WIND BOM_PRES BOM_TNUM BOM_CI BOM_RMW BOM_R34_NE BOM_R34_SE BOM_R34_SW BOM_R34_NW BOM_R50_NE BOM_R50_SE BOM_R50_SW BOM_R50_NW BOM_R64_NE BOM_R64_SE BOM_R64_SW BOM_R64_NW BOM_ROCI BOM_POCI BOM_EYE BOM_POS_METHOD BOM_PRES_METHOD NADI_LAT NADI_LON NADI_CAT NADI_WIND NADI_PRES WELLINGTON_LAT WELLINGTON_LON WELLINGTON_WIND WELLINGTON_PRES DS824_LAT DS824_LON DS824_STAGE DS824_WIND DS824_PRES TD9636_LAT TD9636_LON TD9636_STAGE TD9636_WIND TD9636_PRES TD9635_LAT TD9635_LON TD9635_WIND TD9635_PRES TD9635_ROCI NEUMANN_LAT NEUMANN_LON NEUMANN_CLASS NEUMANN_WIND NEUMANN_PRES MLC_LAT MLC_LON MLC_CLASS MLC_WIND MLC_PRES USA_GUST BOM_GUST BOM_GUST_PER REUNION_GUST REUNION_GUST_PER USA_SEAHGT USA_SEARAD_NE USA_SEARAD_SE USA_SEARAD_SW USA_SEARAD_NW STORM_SPEED STORM_DIR
1927263N11146 1927 49 WP MM NOT_NAMED 1927-09-19 21:00:00 NR 11.1000 146.400 main 1479 1479 __________O___ -1 11.1000 146.400 4 23 349
1927263N11146 1927 49 WP MM NOT_NAMED 1927-09-20 00:00:00 NR 12.2293 146.179 main 1602 1602 __________P___ -1 12.2293 146.179 4 23 349
1927263N11146 1927 49 WP MM NOT_NAMED 1927-09-20 03:00:00 NR 13.3569 145.956 main 1737 1737 __________P___ -1 13.3569 145.956 4 23 349
1927263N11146 1927 49 WP MM NOT_NAMED 1927-09-20 06:00:00 NR 14.4810 145.730 main 1862 1862 __________P___ -1 14.4810 145.730 4 23 349
1927263N11146 1927 49 WP MM NOT_NAMED 1927-09-20 09:00:00 NR 15.6000 145.500 main 1986 1986 __________O___ -1 15.6000 145.500 4 23 348
1927263N11146 1927 49 WP MM NOT_NAMED 1927-09-20 12:00:00 NR 16.7022 145.257 main 2093 1979 __________P___ -1 16.7022 145.257 4 22 346
1927263N11146 1927 49 WP MM NOT_NAMED 1927-09-20 15:00:00 NR 17.7314 144.960 main 1979 1870 __________P___ -1 17.7314 144.960 4 20 341
1927263N11146 1927 49 WP MM NOT_NAMED 1927-09-20 18:00:00 NR 18.6202 144.558 main 1870 1772 __________P___ -1 18.6202 144.558 4 18 330
1927263N11146 1927 49 WP MM NOT_NAMED 1927-09-20 21:00:00 NR 19.3000 144.000 main 1772 1710 __________O___ -1 19.3000 144.000 4 16 309
1927263N11146 1927 49 WP MM NOT_NAMED 1927-09-21 00:00:00 NR 19.6389 143.236 main 1706 1653 __________P___ -1 19.6389 143.236 4 17 287
1927263N11146 1927 49 WP MM NOT_NAMED 1927-09-21 03:00:00 NR 19.7789 142.322 main 1649 1616 __________P___ -1 19.7789 142.322 4 18 277
1927263N11146 1927 49 WP MM NOT_NAMED 1927-09-21 06:00:00 NR 19.8542 141.322 main 1602 1558 __________P___ -1 19.8542 141.322 4 19 277
1927263N11146 1927 49 WP MM NOT_NAMED 1927-09-21 09:00:00 NR 20.0000 140.300 main 1552 1463 __________O___ -1 20.0000 140.300 4 21 282
1927263N11146 1927 49 WP MM NOT_NAMED 1927-09-21 12:00:00 NR 20.2766 139.149 main 1458 1376 __________P___ -1 20.2766 139.149 4 22 287
1927263N11146 1927 49 WP MM NOT_NAMED 1927-09-21 15:00:00 NR 20.6610 138.013 main 1361 1266 __________P___ -1 20.6610 138.013 4 22 295
1927263N11146 1927 49 WP MM NOT_NAMED 1927-09-21 18:00:00 NR 21.2141 137.045 main 1261 1163 __________P___ -1 21.2141 137.045 4 20 312
1927263N11146 1927 49 WP MM NOT_NAMED 1927-09-21 21:00:00 NR 22.0000 136.400 main 1153 1030 __________O___ -1 22.0000 136.400 4 21 335
1927263N11146 1927 49 WP MM NOT_NAMED 1927-09-22 00:00:00 NR 23.1283 136.087 main 1030 907 __________P___ -1 23.1283 136.087 4 25 354
1927263N11146 1927 49 WP MM NOT_NAMED 1927-09-22 03:00:00 NR 24.4803 136.133 main 897 798 __________P___ -1 24.4803 136.133 4 28 8
1927263N11146 1927 49 WP MM NOT_NAMED 1927-09-22 06:00:00 NR 25.9177 136.537 main 789 704 __________P___ -1 25.9177 136.537 4 30 20
1927263N11146 1927 49 WP MM NOT_NAMED 1927-09-22 09:00:00 NR 27.3000 137.300 main 695 602 __________O___ -1 27.3000 137.300 4 31 32
1927263N11146 1927 49 WP MM NOT_NAMED 1927-09-22 12:00:00 NR 28.4904 138.376 main 600 564 __________P___ -1 28.4904 138.376 4 32 44
1927263N11146 1927 49 WP MM NOT_NAMED 1927-09-22 15:00:00 NR 29.5839 139.800 main 565 505 __________P___ -1 29.5839 139.800 4 34 52
1927263N11146 1927 49 WP MM NOT_NAMED 1927-09-22 18:00:00 NR 30.5590 141.426 main 499 482 __________P___ -1 30.5590 141.426 4 34 57
1927263N11146 1927 49 WP MM NOT_NAMED 1927-09-22 21:00:00 NR 31.4000 143.100 main 490 488 __________O___ -1 31.4000 143.100 4 31 60
1927263N11146 1927 49 WP MM NOT_NAMED 1927-09-23 00:00:00 NR 32.1009 144.619 main 519 519 __________P___ -1 32.1009 144.619 4 29 64
1927263N11146 1927 49 WP MM NOT_NAMED 1927-09-23 03:00:00 NR 32.6807 146.139 main 582 582 __________P___ -1 32.6807 146.139 4 28 67
1927263N11146 1927 49 WP MM NOT_NAMED 1927-09-23 06:00:00 NR 33.1950 147.639 main 673 673 __________P___ -1 33.1950 147.639 4 27 68
1927263N11146 1927 49 WP MM NOT_NAMED 1927-09-23 09:00:00 NR 33.7000 149.100 main 780 780 __________O___ -1 33.7000 149.100 4 26 66
1927263N11146 1927 49 WP MM NOT_NAMED 1927-09-23 12:00:00 NR 34.2408 150.510 main 888 888 __________P___ -1 34.2408 150.510 4 26 64
1927263N11146 1927 49 WP MM NOT_NAMED 1927-09-23 15:00:00 NR 34.8148 151.884 main 1001 1001 __________P___ -1 34.8148 151.884 4 25 63
1927263N11146 1927 49 WP MM NOT_NAMED 1927-09-23 18:00:00 NR 35.4067 153.241 main 1077 1077 __________P___ -1 35.4067 153.241 4 25 62
1927263N11146 1927 49 WP MM NOT_NAMED 1927-09-23 21:00:00 NR 36.0000 154.600 main 1115 __________O___ -1 36.0000 154.600 4 25 62

Digital Typhoon Data and Search

About IBTrACS Database

This database is a web-friendly format of International Best Track Archive for Climate Stewardship (IBTrACS), a global best track data archive curated by NOAA dating back to 1842.

Updated: 2021-11-26